Time;durP1;ratioP1;P1;durP2;ratioP2;P2;SDS_P1;SDS_P2;PMS_P1;PMS_P2;Temp;Humidity;BMP_temperature;BMP_pressure;BME280_temperature;BME280_humidity;BME280_pressure;Samples;Min_cycle;Max_cycle;Signal;HPM_P1;HPM_P2
2021/04/01 00:00:48;;;;;;;15.02;9.88;;;14.20;99.90;;;;;;5077799;28;20610;-79
2021/04/01 00:03:16;;;;;;;12.40;10.63;;;14.40;99.90;;;;;;5059191;28;20224;-79
2021/04/01 00:05:42;;;;;;;10.32;9.00;;;14.50;99.90;;;;;;5042891;28;20222;-79
2021/04/01 00:08:09;;;;;;;12.43;9.50;;;14.30;99.90;;;;;;5053754;28;20812;-79
2021/04/01 00:10:39;;;;;;;11.68;8.93;;;14.20;99.90;;;;;;5071819;28;20578;-79
2021/04/01 00:13:06;;;;;;;14.07;10.73;;;14.20;99.90;;;;;;5072276;28;20199;-79
2021/04/01 00:15:35;;;;;;;14.07;9.10;;;14.30;99.90;;;;;;5050946;28;20292;-79
2021/04/01 00:18:02;;;;;;;10.30;9.23;;;14.30;99.90;;;;;;5074003;28;20824;-79
2021/04/01 00:20:29;;;;;;;12.15;9.48;;;14.20;99.90;;;;;;5057172;28;20352;-79
2021/04/01 00:22:56;;;;;;;11.45;8.80;;;14.30;99.90;;;;;;5076775;28;20811;-80
2021/04/01 00:25:24;;;;;;;10.25;8.73;;;14.20;99.90;;;;;;5055115;28;20210;-79
2021/04/01 00:27:50;;;;;;;10.93;8.77;;;14.00;99.90;;;;;;5074094;28;20240;-80
2021/04/01 00:30:17;;;;;;;11.77;9.55;;;14.00;99.90;;;;;;5076157;28;20196;-80
2021/04/01 00:32:46;;;;;;;10.73;8.98;;;14.00;99.90;;;;;;5078180;28;20202;-79
2021/04/01 00:35:13;;;;;;;10.55;9.55;;;13.90;99.90;;;;;;5056997;28;20591;-79
2021/04/01 00:37:40;;;;;;;13.05;9.50;;;13.90;99.90;;;;;;5054725;28;20210;-79
2021/04/01 00:40:09;;;;;;;12.75;9.15;;;13.90;99.90;;;;;;5075475;28;20202;-80
2021/04/01 00:42:36;;;;;;;10.45;9.35;;;13.80;99.90;;;;;;5077219;28;20195;-80
2021/04/01 00:45:05;;;;;;;11.65;9.20;;;13.80;99.90;;;;;;5068157;28;20198;-79
2021/04/01 00:47:34;;;;;;;12.82;10.20;;;13.80;99.90;;;;;;5058232;28;20216;-79
2021/04/01 00:50:03;;;;;;;10.82;9.73;;;13.90;99.90;;;;;;5059815;28;20289;-79
2021/04/01 00:52:30;;;;;;;11.02;9.25;;;13.90;99.90;;;;;;5061505;28;20191;-79
2021/04/01 00:54:57;;;;;;;12.05;9.95;;;13.80;99.90;;;;;;5061228;28;20276;-80
2021/04/01 00:57:24;;;;;;;15.30;9.27;;;13.80;99.90;;;;;;5061844;28;20431;-79
2021/04/01 00:59:53;;;;;;;10.98;9.27;;;13.70;99.90;;;;;;5075062;28;20227;-79
2021/04/01 01:02:20;;;;;;;11.52;9.02;;;13.60;99.90;;;;;;5078421;28;20195;-79
2021/04/01 01:04:47;;;;;;;14.15;10.55;;;13.70;99.90;;;;;;5083617;28;20199;-79
2021/04/01 01:07:14;;;;;;;13.60;10.63;;;13.70;99.90;;;;;;5085350;28;20222;-80
2021/04/01 01:09:41;;;;;;;15.18;10.48;;;13.60;99.90;;;;;;5066259;28;20207;-79
2021/04/01 01:12:08;;;;;;;16.85;10.88;;;13.80;99.90;;;;;;5083999;28;20206;-80
2021/04/01 01:14:35;;;;;;;15.63;10.55;;;13.80;99.90;;;;;;5066092;28;20197;-80
2021/04/01 01:17:04;;;;;;;15.00;11.38;;;13.90;99.90;;;;;;5080674;28;20214;-79
2021/04/01 01:19:37;;;;;;;12.60;9.80;;;13.90;99.90;;;;;;5066761;28;20214;-80
2021/04/01 01:22:05;;;;;;;14.50;11.05;;;13.90;99.90;;;;;;5049788;28;20199;-79
2021/04/01 01:24:33;;;;;;;11.75;10.05;;;13.90;99.90;;;;;;5083971;28;20230;-80
2021/04/01 01:27:01;;;;;;;11.48;10.07;;;13.90;99.90;;;;;;5083648;28;20234;-79
2021/04/01 01:29:28;;;;;;;12.85;11.00;;;13.80;99.90;;;;;;5063890;28;20677;-79
2021/04/01 01:31:55;;;;;;;18.63;11.40;;;13.80;99.90;;;;;;5066890;28;20191;-79
2021/04/01 01:34:22;;;;;;;14.38;10.77;;;13.80;99.90;;;;;;5083774;28;20297;-79
2021/04/01 01:36:49;;;;;;;12.48;11.05;;;13.80;99.90;;;;;;5065485;28;20253;-79
2021/04/01 01:39:15;;;;;;;14.27;11.52;;;13.80;99.90;;;;;;5065253;28;20209;-79
2021/04/01 01:41:43;;;;;;;13.55;11.55;;;13.90;99.90;;;;;;5084594;28;20210;-80
2021/04/01 01:44:10;;;;;;;13.35;10.85;;;13.80;99.90;;;;;;5066758;28;20214;-79
2021/04/01 01:46:37;;;;;;;12.32;10.25;;;13.80;99.90;;;;;;5078425;22;20314;-32
2021/04/01 01:49:03;;;;;;;12.07;10.27;;;13.80;99.90;;;;;;5072611;28;20203;-32
2021/04/01 01:51:30;;;;;;;13.43;10.48;;;13.70;99.90;;;;;;5089546;28;20277;-34
2021/04/01 01:53:58;;;;;;;13.77;11.18;;;13.80;99.90;;;;;;5068435;28;20696;-36
2021/04/01 01:56:26;;;;;;;15.45;11.90;;;13.90;99.90;;;;;;5060916;28;20238;-35
2021/04/01 01:58:56;;;;;;;12.98;11.63;;;13.60;99.90;;;;;;5070795;28;20218;-34
2021/04/01 02:01:24;;;;;;;15.02;12.23;;;13.00;99.90;;;;;;5039268;28;20578;-35
2021/04/01 02:03:51;;;;;;;13.30;11.90;;;12.90;99.90;;;;;;5053971;28;21365;-38
2021/04/01 02:06:20;;;;;;;15.93;12.48;;;13.00;99.90;;;;;;5070596;28;20252;-34
2021/04/01 02:08:46;;;;;;;14.68;11.68;;;13.20;99.90;;;;;;5070154;28;20191;-34
2021/04/01 02:11:14;;;;;;;18.30;11.68;;;13.30;99.90;;;;;;5069756;28;20205;-34
2021/04/01 02:13:41;;;;;;;13.55;11.55;;;13.40;99.90;;;;;;5066480;28;20619;-35
2021/04/01 02:16:09;;;;;;;13.18;11.80;;;13.50;99.90;;;;;;5060556;28;20233;-35
2021/04/01 02:18:36;;;;;;;13.20;11.10;;;13.50;99.90;;;;;;5071393;28;20202;-35
2021/04/01 02:21:03;;;;;;;13.05;10.68;;;13.60;99.90;;;;;;5056688;28;20753;-34
2021/04/01 02:23:32;;;;;;;13.10;11.60;;;13.60;99.90;;;;;;5060254;28;20183;-36
2021/04/01 02:26:00;;;;;;;16.63;12.40;;;13.60;99.90;;;;;;5051381;28;20285;-35
2021/04/01 02:28:28;;;;;;;13.00;11.20;;;13.60;99.90;;;;;;5044172;28;20192;-35
2021/04/01 02:30:58;;;;;;;15.60;11.50;;;13.50;99.90;;;;;;5061768;28;20743;-36
2021/04/01 02:33:28;;;;;;;13.13;11.60;;;13.50;99.90;;;;;;5056195;28;20200;-35
2021/04/01 02:35:55;;;;;;;13.63;11.43;;;13.50;99.90;;;;;;5052348;28;20422;-36
2021/04/01 02:38:24;;;;;;;14.55;10.60;;;13.40;99.90;;;;;;5071207;28;20277;-34
2021/04/01 02:40:50;;;;;;;12.60;10.80;;;13.40;99.90;;;;;;5060607;28;20678;-35
2021/04/01 02:43:22;;;;;;;24.08;12.75;;;13.40;99.90;;;;;;5038297;28;20372;-36
2021/04/01 02:45:48;;;;;;;13.90;10.88;;;13.50;99.90;;;;;;5056442;28;20770;-36
2021/04/01 02:48:15;;;;;;;13.70;10.25;;;13.60;99.90;;;;;;5068781;28;20198;-34
2021/04/01 02:50:42;;;;;;;14.85;12.07;;;13.50;99.90;;;;;;5063461;28;21811;-36
2021/04/01 02:53:10;;;;;;;14.63;11.95;;;13.50;99.90;;;;;;5069211;28;20356;-34
2021/04/01 02:55:37;;;;;;;14.32;11.38;;;13.50;99.90;;;;;;5053125;28;20230;-36
2021/04/01 02:58:04;;;;;;;12.25;10.85;;;13.50;99.90;;;;;;5053696;28;20413;-34
2021/04/01 03:00:33;;;;;;;13.98;11.80;;;13.30;99.90;;;;;;5059073;28;20281;-36
2021/04/01 03:03:02;;;;;;;15.25;12.50;;;13.30;99.90;;;;;;5070608;28;20194;-36
2021/04/01 03:05:29;;;;;;;13.07;11.45;;;13.50;99.90;;;;;;5042358;28;20211;-35
2021/04/01 03:07:57;;;;;;;13.98;11.35;;;13.40;99.90;;;;;;5067458;28;20273;-37
2021/04/01 03:10:24;;;;;;;17.23;12.15;;;13.40;99.90;;;;;;5069249;28;20285;-35
2021/04/01 03:12:51;;;;;;;12.50;11.30;;;13.40;99.90;;;;;;5055107;28;20671;-37
2021/04/01 03:15:18;;;;;;;15.07;11.30;;;13.40;99.90;;;;;;5067890;28;20222;-36
2021/04/01 03:17:45;;;;;;;13.68;11.65;;;13.40;99.90;;;;;;5056078;28;20222;-37
2021/04/01 03:20:12;;;;;;;16.70;12.48;;;13.40;99.90;;;;;;5052650;28;20210;-36
2021/04/01 03:22:40;;;;;;;12.50;11.23;;;13.40;99.90;;;;;;5064587;28;20249;-37
2021/04/01 03:25:10;;;;;;;12.90;10.80;;;13.50;99.90;;;;;;5066865;28;20218;-36
2021/04/01 03:27:38;;;;;;;16.75;12.25;;;13.40;99.90;;;;;;5050886;28;20247;-36
2021/04/01 03:30:07;;;;;;;14.05;10.70;;;13.50;99.90;;;;;;5069957;28;20633;-35
2021/04/01 03:32:34;;;;;;;18.30;11.05;;;13.50;99.90;;;;;;5054745;28;20274;-34
2021/04/01 03:35:01;;;;;;;12.70;10.55;;;13.40;99.90;;;;;;5054630;28;20215;-34
2021/04/01 03:37:28;;;;;;;13.50;10.43;;;13.30;99.90;;;;;;5063691;28;20214;-35
2021/04/01 03:39:55;;;;;;;19.15;12.45;;;13.40;99.90;;;;;;5070542;28;20669;-34
2021/04/01 03:42:23;;;;;;;16.27;13.00;;;13.30;99.90;;;;;;5054526;28;20226;-34
2021/04/01 03:44:51;;;;;;;14.98;11.95;;;13.50;99.90;;;;;;5060856;28;20264;-34
2021/04/01 03:47:18;;;;;;;13.27;11.30;;;13.30;99.90;;;;;;5052509;28;20281;-35
2021/04/01 03:49:44;;;;;;;15.35;11.23;;;13.20;99.90;;;;;;5068473;28;20585;-34
2021/04/01 03:52:11;;;;;;;15.13;12.93;;;13.20;99.90;;;;;;5068204;28;20202;-36
2021/04/01 03:54:38;;;;;;;15.63;13.57;;;13.20;99.90;;;;;;5070473;28;20214;-33
2021/04/01 03:57:06;;;;;;;15.00;12.45;;;13.40;99.90;;;;;;5052132;28;20306;-34
2021/04/01 03:59:40;;;;;;;15.73;11.90;;;13.40;99.90;;;;;;5051715;28;20266;-34
2021/04/01 04:02:32;;;;;;;14.05;12.38;;;13.40;99.90;;;;;;5059151;28;20576;-35
2021/04/01 04:05:12;;;;;;;15.30;12.60;;;13.20;99.90;;;;;;5050045;28;20218;-36
2021/04/01 04:08:03;;;;;;;19.58;12.23;;;13.20;99.90;;;;;;5043703;28;20674;-35
2021/04/01 04:10:43;;;;;;;16.52;13.52;;;13.20;99.90;;;;;;5061950;28;20198;-36
2021/04/01 04:13:17;;;;;;;17.55;14.65;;;13.10;99.90;;;;;;5060346;28;20664;-34
2021/04/01 04:15:46;;;;;;;17.25;14.25;;;12.90;99.90;;;;;;5068509;28;20221;-35
2021/04/01 04:18:13;;;;;;;16.73;14.52;;;12.80;99.90;;;;;;5069785;28;20206;-35
2021/04/01 04:20:39;;;;;;;18.65;14.57;;;12.80;99.90;;;;;;5060753;28;20290;-35
2021/04/01 04:23:08;;;;;;;17.35;13.60;;;12.60;99.90;;;;;;5058865;28;20616;-34
2021/04/01 04:25:35;;;;;;;14.52;11.85;;;12.60;99.90;;;;;;5050162;28;20227;-35
2021/04/01 04:28:24;;;;;;;16.60;12.95;;;12.50;99.90;;;;;;5069660;28;20695;-36
2021/04/01 04:30:52;;;;;;;16.20;12.52;;;12.60;99.90;;;;;;5057035;28;20278;-35
2021/04/01 04:33:18;;;;;;;15.27;12.45;;;12.50;99.90;;;;;;5050116;28;20213;-39
2021/04/01 04:35:45;;;;;;;13.63;12.25;;;12.60;99.90;;;;;;5051660;28;20310;-33
2021/04/01 04:38:12;;;;;;;14.50;12.40;;;12.80;99.90;;;;;;5033900;28;20203;-36
2021/04/01 04:40:39;;;;;;;16.20;11.48;;;12.80;99.90;;;;;;5045720;28;20659;-36
2021/04/01 04:43:06;;;;;;;18.10;15.30;;;12.60;99.90;;;;;;5060921;28;20271;-35
2021/04/01 04:45:32;;;;;;;14.95;11.98;;;12.50;99.90;;;;;;5073209;28;20214;-35
2021/04/01 04:48:00;;;;;;;14.50;11.75;;;12.50;99.90;;;;;;5051584;28;20233;-36
2021/04/01 04:50:27;;;;;;;18.35;13.23;;;12.50;99.90;;;;;;5073869;28;20199;-35
2021/04/01 04:52:54;;;;;;;19.73;15.05;;;12.20;99.90;;;;;;5069137;28;20198;-35
2021/04/01 04:55:21;;;;;;;18.52;15.30;;;12.20;99.90;;;;;;5052709;28;20303;-34
2021/04/01 04:57:51;;;;;;;20.67;16.27;;;12.30;99.90;;;;;;5060025;28;20281;-36
2021/04/01 05:00:50;;;;;;;19.33;16.98;;;12.30;99.90;;;;;;5055367;28;20199;-36
2021/04/01 05:06:04;;;;;;;22.00;17.58;;;12.40;99.90;;;;;;5065053;28;20215;-35
2021/04/01 05:08:31;;;;;;;28.60;17.60;;;12.40;99.90;;;;;;5053383;28;20199;-34
2021/04/01 05:10:57;;;;;;;24.73;18.98;;;12.40;99.90;;;;;;5054233;28;20211;-34
2021/04/01 05:13:24;;;;;;;23.10;17.70;;;12.40;99.90;;;;;;5056847;28;20184;-36
2021/04/01 05:15:50;;;;;;;21.95;16.40;;;12.30;99.90;;;;;;5053031;28;20629;-35
2021/04/01 05:18:26;;;;;;;22.88;16.50;;;12.40;99.90;;;;;;5045116;28;20279;-35
2021/04/01 05:20:54;;;;;;;20.92;17.70;;;12.60;99.90;;;;;;5049402;28;20623;-35
2021/04/01 05:23:32;;;;;;;20.75;15.93;;;12.70;99.90;;;;;;5065929;28;20281;-37
2021/04/01 05:26:23;;;;;;;20.90;16.48;;;12.80;99.90;;;;;;5043601;28;20798;-35
2021/04/01 05:28:52;;;;;;;20.33;15.35;;;13.00;99.90;;;;;;5051166;28;20203;-37
2021/04/01 05:31:20;;;;;;;20.98;15.68;;;13.10;99.90;;;;;;5048725;28;20198;-36
2021/04/01 05:33:49;;;;;;;19.80;16.42;;;13.00;99.90;;;;;;5027608;28;20203;-34
2021/04/01 05:36:20;;;;;;;20.70;15.88;;;13.00;99.90;;;;;;5051212;28;20310;-35
2021/04/01 05:38:47;;;;;;;19.48;15.23;;;13.20;99.90;;;;;;5052703;28;20200;-35
2021/04/01 05:41:15;;;;;;;18.77;15.25;;;13.00;99.90;;;;;;5054011;28;20196;-35
2021/04/01 05:43:47;;;;;;;23.77;17.13;;;13.00;99.90;;;;;;5049557;28;20199;-35
2021/04/01 05:46:18;;;;;;;21.52;18.80;;;12.90;99.90;;;;;;5068991;28;20211;-36
2021/04/01 05:49:00;;;;;;;20.52;16.88;;;13.10;99.90;;;;;;5058147;28;20458;-35
2021/04/01 05:51:58;;;;;;;22.27;18.63;;;13.20;99.90;;;;;;5059658;28;20204;-36
2021/04/01 06:00:26;;;;;;;43.88;30.25;;;13.40;99.90;;;;;;5062222;28;20221;-36
2021/04/01 06:03:08;;;;;;;22.83;16.98;;;13.60;99.90;;;;;;5063243;28;20681;-34
2021/04/01 06:05:38;;;;;;;21.58;16.55;;;13.50;99.90;;;;;;5051813;28;20226;-34
2021/04/01 06:08:09;;;;;;;20.40;16.17;;;13.60;99.90;;;;;;5051643;28;20551;-34
2021/04/01 06:10:36;;;;;;;20.88;16.33;;;13.60;99.90;;;;;;5051332;28;20637;-34
2021/04/01 06:13:09;;;;;;;19.48;16.20;;;13.60;99.90;;;;;;5071639;28;20221;-36
2021/04/01 06:15:37;;;;;;;16.88;14.35;;;13.60;99.90;;;;;;5054751;28;20226;-34
2021/04/01 06:18:10;;;;;;;19.63;16.27;;;13.60;99.90;;;;;;5051233;28;20942;-35
2021/04/01 06:20:39;;;;;;;19.70;15.23;;;13.60;99.90;;;;;;5048895;28;20636;-35
2021/04/01 06:23:07;;;;;;;22.15;16.52;;;13.50;99.90;;;;;;5048282;28;20254;-34
2021/04/01 06:25:35;;;;;;;22.20;18.20;;;13.30;99.90;;;;;;5050249;28;20219;-34
2021/04/01 06:28:08;;;;;;;29.75;15.93;;;13.80;99.90;;;;;;5051995;28;20191;-34
2021/04/01 06:30:48;;;;;;;21.85;18.60;;;13.80;99.90;;;;;;5069943;28;20195;-34
2021/04/01 06:33:20;;;;;;;25.92;16.13;;;14.00;99.90;;;;;;5060703;28;20203;-34
2021/04/01 06:35:50;;;;;;;17.88;15.45;;;14.00;99.90;;;;;;5044781;28;20238;-34
2021/04/01 06:38:20;;;;;;;40.95;31.83;;;13.90;99.90;;;;;;5051412;28;20282;-34
2021/04/01 06:40:51;;;;;;;27.65;23.95;;;14.00;99.90;;;;;;5043860;28;20206;-33
2021/04/01 06:43:50;;;;;;;25.23;20.23;;;14.00;99.90;;;;;;5064646;28;20257;-34
2021/04/01 06:46:18;;;;;;;37.00;24.17;;;14.10;99.90;;;;;;5047330;28;20298;-37
2021/04/01 06:51:51;;;;;;;40.78;24.83;;;14.70;99.90;;;;;;5015165;28;20183;-34
2021/04/01 06:54:28;;;;;;;39.08;26.83;;;14.20;99.90;;;;;;5048677;28;20199;-34
2021/04/01 06:57:09;;;;;;;31.95;25.13;;;14.30;99.90;;;;;;5047943;28;20218;-35
2021/04/01 06:59:45;;;;;;;39.25;29.38;;;14.50;99.90;;;;;;5049450;28;20203;-34
2021/04/01 07:02:19;;;;;;;46.25;32.33;;;14.70;99.90;;;;;;5051229;28;20293;-34
2021/04/01 07:04:50;;;;;;;45.35;31.08;;;14.80;99.90;;;;;;5052330;28;20713;-34
2021/04/01 07:07:19;;;;;;;41.35;30.67;;;15.00;99.90;;;;;;5045057;28;20665;-33
2021/04/01 07:10:05;;;;;;;52.58;36.50;;;15.00;99.90;;;;;;5046549;28;20203;-36
2021/04/01 07:12:36;;;;;;;46.75;35.58;;;15.00;99.90;;;;;;5051796;28;20202;-37
2021/04/01 07:15:10;;;;;;;45.55;33.90;;;15.20;99.90;;;;;;5051145;28;20298;-36
2021/04/01 07:17:42;;;;;;;49.42;35.03;;;15.30;99.90;;;;;;5043871;28;20302;-36
2021/04/01 07:20:30;;;;;;;47.22;33.40;;;15.10;99.90;;;;;;5046639;28;20192;-35
2021/04/01 07:48:11;;;;;;;57.97;40.17;;;15.70;99.90;;;;;;5050767;28;20627;-34
2021/04/01 07:50:40;;;;;;;55.58;40.33;;;15.50;99.90;;;;;;5049072;28;20208;-36
2021/04/01 07:53:11;;;;;;;59.85;40.33;;;15.50;99.90;;;;;;5035399;28;20190;-34
2021/04/01 07:55:59;;;;;;;54.22;39.67;;;15.50;99.90;;;;;;5056909;28;20303;-37
2021/04/01 07:58:52;;;;;;;51.67;38.95;;;15.50;99.90;;;;;;5045979;28;20614;-35
2021/04/01 08:01:32;;;;;;;56.08;39.45;;;15.40;99.90;;;;;;5044614;22;20827;-33
2021/04/01 08:04:03;;;;;;;52.08;39.42;;;15.30;99.90;;;;;;5045899;28;20237;-33
2021/04/01 08:06:31;;;;;;;52.50;39.20;;;15.30;99.90;;;;;;5048175;28;20432;-32
2021/04/01 08:09:02;;;;;;;56.70;39.30;;;15.50;99.90;;;;;;5044867;28;20736;-33
2021/04/01 08:11:33;;;;;;;58.63;40.17;;;15.70;99.90;;;;;;5043110;28;20706;-33
2021/04/01 08:14:08;;;;;;;54.17;39.80;;;15.60;99.90;;;;;;5043082;28;20284;-33
2021/04/01 08:16:40;;;;;;;58.10;38.95;;;15.60;99.90;;;;;;5047850;28;20302;-33
2021/04/01 08:19:11;;;;;;;55.97;39.97;;;15.70;99.90;;;;;;5050550;28;20207;-33
2021/04/01 08:21:41;;;;;;;57.60;40.38;;;15.60;99.90;;;;;;5048353;28;20229;-35
2021/04/01 08:24:17;;;;;;;55.50;38.97;;;15.70;99.90;;;;;;5054821;28;20314;-33
2021/04/01 08:27:02;;;;;;;56.42;40.33;;;15.70;99.90;;;;;;5050514;28;20572;-32
2021/04/01 08:32:57;;;;;;;60.65;43.72;;;15.80;99.90;;;;;;5038472;28;20270;-33
2021/04/01 08:35:25;;;;;;;52.83;39.45;;;15.90;99.90;;;;;;5045282;28;20691;-33
2021/04/01 08:38:05;;;;;;;64.47;44.78;;;16.10;99.90;;;;;;5048176;28;20220;-33
2021/04/01 08:40:33;;;;;;;60.65;43.47;;;16.10;99.90;;;;;;5051636;28;21891;-34
2021/04/01 08:43:34;;;;;;;68.18;43.75;;;16.30;99.90;;;;;;5048898;28;20226;-34
2021/04/01 08:46:24;;;;;;;60.13;42.92;;;16.30;99.90;;;;;;5044064;28;20679;-33
2021/04/01 08:49:01;;;;;;;64.90;43.08;;;16.30;99.90;;;;;;5046046;28;20211;-33
2021/04/01 08:52:04;;;;;;;72.57;47.30;;;16.20;99.90;;;;;;5049089;28;20222;-34
2021/04/01 08:54:39;;;;;;;66.40;46.47;;;16.40;99.90;;;;;;5047476;28;20203;-34
2021/04/01 08:57:11;;;;;;;71.88;48.03;;;16.50;99.90;;;;;;5048663;28;20301;-37
2021/04/01 08:59:47;;;;;;;66.82;45.92;;;16.70;99.90;;;;;;5128607;22;20222;-90
2021/04/01 09:02:18;;;;;;;75.88;50.00;;;16.70;99.90;;;;;;5085035;28;20210;-88
2021/04/01 09:04:51;;;;;;;72.68;46.28;;;16.80;99.90;;;;;;5097663;28;20202;-82
2021/04/01 09:07:25;;;;;;;69.40;47.92;;;16.70;99.90;;;;;;5096191;28;20214;-82
2021/04/01 09:09:53;;;;;;;65.60;45.92;;;16.60;99.90;;;;;;5070454;28;20659;-82
2021/04/01 09:12:26;;;;;;;74.43;46.90;;;16.90;99.90;;;;;;5110295;22;20376;-34
2021/04/01 09:14:59;;;;;;;73.38;48.63;;;16.90;99.90;;;;;;5026569;28;20671;-33
2021/04/01 09:17:31;;;;;;;70.95;48.08;;;16.80;99.90;;;;;;5026841;28;20240;-34
2021/04/01 09:19:58;;;;;;;80.03;49.97;;;16.80;99.90;;;;;;5017282;28;20229;-36
2021/04/01 09:22:29;;;;;;;74.55;50.53;;;17.10;99.90;;;;;;5006962;28;20295;-34
2021/04/01 09:24:58;;;;;;;66.75;46.50;;;17.40;99.90;;;;;;5011118;28;20684;-35
2021/04/01 09:27:25;;;;;;;74.50;51.42;;;17.40;99.90;;;;;;5048449;22;20305;-31
2021/04/01 09:30:03;;;;;;;77.05;49.92;;;17.30;99.90;;;;;;5055321;28;20382;-31
2021/04/01 09:32:31;;;;;;;74.00;49.25;;;17.30;99.90;;;;;;5054638;28;20321;-31
2021/04/01 09:35:01;;;;;;;78.10;49.72;;;17.50;99.90;;;;;;5055378;28;20214;-32
2021/04/01 09:37:28;;;;;;;73.50;50.90;;;17.40;99.90;;;;;;5045847;28;20314;-34
2021/04/01 09:39:55;;;;;;;78.82;51.22;;;17.60;99.90;;;;;;5046695;28;20199;-33
2021/04/01 09:42:22;;;;;;;79.50;50.03;;;17.60;99.90;;;;;;5043138;28;20220;-32
2021/04/01 09:44:51;;;;;;;77.60;54.10;;;17.60;99.90;;;;;;5048975;28;20195;-33
2021/04/01 09:47:27;;;;;;;79.15;49.78;;;17.50;99.90;;;;;;5048289;28;20291;-34
2021/04/01 09:50:03;;;;;;;78.55;52.92;;;17.70;99.90;;;;;;5047642;28;20192;-33
2021/04/01 09:52:30;;;;;;;86.57;50.05;;;17.60;99.90;;;;;;5042036;28;20286;-34
2021/04/01 09:54:59;;;;;;;80.90;55.03;;;17.70;99.90;;;;;;5042212;28;20269;-35
2021/04/01 09:57:42;;;;;;;81.88;51.40;;;17.90;99.90;;;;;;5038911;28;20242;-34
2021/04/01 10:00:19;;;;;;;81.28;52.90;;;18.10;99.90;;;;;;5045397;28;20678;-35
2021/04/01 10:03:01;;;;;;;84.75;53.67;;;18.30;99.90;;;;;;5041582;28;20299;-34
2021/04/01 10:05:33;;;;;;;80.63;52.40;;;18.30;99.90;;;;;;5045007;28;20200;-34
2021/04/01 10:08:02;;;;;;;83.13;54.47;;;18.20;99.90;;;;;;5045346;28;20230;-34
2021/04/01 10:10:42;;;;;;;85.30;55.20;;;18.10;99.90;;;;;;5046486;28;20210;-34
2021/04/01 10:13:16;;;;;;;78.70;52.08;;;18.30;99.90;;;;;;5044178;28;20199;-34
2021/04/01 10:15:43;;;;;;;81.28;53.50;;;18.70;99.90;;;;;;5038052;28;20248;-34
2021/04/01 10:18:16;;;;;;;88.30;53.67;;;18.90;99.90;;;;;;5044084;28;20225;-35
2021/04/01 10:20:50;;;;;;;77.10;51.83;;;18.80;99.90;;;;;;5040821;28;20195;-33
2021/04/01 10:23:18;;;;;;;79.53;52.60;;;18.60;99.90;;;;;;5035791;28;20673;-34
2021/04/01 10:25:50;;;;;;;87.72;57.15;;;18.60;99.90;;;;;;5041751;28;20218;-35
2021/04/01 10:28:28;;;;;;;89.60;55.10;;;18.70;99.90;;;;;;5048182;28;20231;-33
2021/04/01 10:30:56;;;;;;;84.63;54.25;;;18.70;99.90;;;;;;5048330;28;20610;-35
2021/04/01 10:33:33;;;;;;;90.05;57.38;;;18.80;99.90;;;;;;5036806;28;20196;-33
2021/04/01 10:36:06;;;;;;;78.25;52.13;;;18.80;99.90;;;;;;5039485;28;20563;-33
2021/04/01 10:38:35;;;;;;;88.70;55.42;;;18.70;99.90;;;;;;5056063;28;20211;-33
2021/04/01 10:41:10;;;;;;;86.22;54.60;;;18.60;99.90;;;;;;5045360;28;20570;-35
2021/04/01 10:43:41;;;;;;;84.15;55.72;;;18.90;99.90;;;;;;5041609;28;20200;-34
2021/04/01 10:46:16;;;;;;;77.90;53.38;;;19.00;99.90;;;;;;5046279;28;20674;-33
2021/04/01 10:48:48;;;;;;;86.55;56.35;;;19.00;99.90;;;;;;5045460;28;20286;-32
2021/04/01 10:51:16;;;;;;;84.93;55.35;;;19.00;99.90;;;;;;5065935;22;20369;-32
2021/04/01 10:53:44;;;;;;;86.50;54.72;;;19.10;99.90;;;;;;5050141;28;20215;-33
2021/04/01 10:56:13;;;;;;;83.47;52.60;;;19.00;99.90;;;;;;5059272;28;20607;-32
2021/04/01 10:58:54;;;;;;;77.38;51.83;;;19.10;99.90;;;;;;5054807;28;20727;-31
2021/04/01 11:01:33;;;;;;;84.35;57.10;;;19.10;99.90;;;;;;5065586;28;20302;-32
2021/04/01 11:04:03;;;;;;;78.80;53.83;;;19.30;99.90;;;;;;5047140;28;20282;-33
2021/04/01 11:06:33;;;;;;;77.72;53.40;;;19.20;99.90;;;;;;5049170;28;20230;-31
2021/04/01 11:09:02;;;;;;;79.57;53.88;;;19.00;99.90;;;;;;5047734;28;20195;-35
2021/04/01 11:11:41;;;;;;;79.82;53.40;;;18.90;99.90;;;;;;5048582;28;20730;-31
2021/04/01 11:14:09;;;;;;;88.15;61.20;;;19.20;99.90;;;;;;5046947;28;20210;-31
2021/04/01 11:16:37;;;;;;;81.45;56.72;;;19.50;99.90;;;;;;5048480;28;20250;-31
2021/04/01 11:19:05;;;;;;;77.05;53.72;;;19.80;99.90;;;;;;5049241;28;20218;-31
2021/04/01 11:21:34;;;;;;;74.78;50.30;;;19.90;99.90;;;;;;5047578;28;20218;-32
2021/04/01 11:24:01;;;;;;;70.90;47.53;;;20.60;99.90;;;;;;5044200;28;20199;-32
2021/04/01 11:26:28;;;;;;;63.05;45.85;;;20.70;99.90;;;;;;5048585;28;20713;-32
2021/04/01 11:28:57;;;;;;;59.95;42.83;;;20.80;99.90;;;;;;5043556;28;20195;-34
2021/04/01 11:31:25;;;;;;;60.92;44.50;;;20.40;99.90;;;;;;5046940;28;20677;-33
2021/04/01 11:33:53;;;;;;;54.97;42.03;;;20.70;99.90;;;;;;5044628;28;20284;-33
2021/04/01 11:36:22;;;;;;;56.97;43.05;;;20.90;99.90;;;;;;5044477;28;20227;-32
2021/04/01 11:38:53;;;;;;;52.85;38.70;;;21.00;99.90;;;;;;5047253;28;20551;-31
2021/04/01 11:41:23;;;;;;;45.75;34.83;;;20.60;99.90;;;;;;5047113;28;20227;-32
2021/04/01 11:43:51;;;;;;;45.53;33.80;;;20.20;99.90;;;;;;5046758;28;20609;-33
2021/04/01 11:46:20;;;;;;;38.53;30.92;;;19.30;99.90;;;;;;5047158;28;20214;-34
2021/04/01 11:48:49;;;;;;;35.95;29.50;;;18.70;99.90;;;;;;5045115;28;20192;-32
2021/04/01 11:51:19;;;;;;;38.72;27.63;;;18.50;99.90;;;;;;5048055;28;20310;-33
2021/04/01 11:53:47;;;;;;;36.35;25.35;;;19.00;99.90;;;;;;5044468;28;20199;-32
2021/04/01 11:56:15;;;;;;;29.48;22.13;;;19.20;99.90;;;;;;5042404;28;20219;-31
2021/04/01 11:58:43;;;;;;;26.30;20.80;;;19.00;99.90;;;;;;5044548;28;20290;-33
2021/04/01 12:01:13;;;;;;;27.45;15.43;;;19.60;99.90;;;;;;5005146;28;20255;-32
2021/04/01 12:03:56;;;;;;;19.70;13.60;;;20.10;99.90;;;;;;5047332;28;20598;-33
2021/04/01 12:06:25;;;;;;;20.35;10.65;;;20.20;99.90;;;;;;5044684;28;20191;-31
2021/04/01 12:08:54;;;;;;;16.48;10.43;;;19.30;99.90;;;;;;5043813;28;20204;-33
2021/04/01 12:11:20;;;;;;;13.32;7.78;;;19.80;99.90;;;;;;5045259;28;20721;-33
2021/04/01 12:13:47;;;;;;;14.93;8.23;;;19.50;99.90;;;;;;5044441;28;20238;-32
2021/04/01 12:16:18;;;;;;;9.85;6.03;;;19.30;99.90;;;;;;5045529;28;20199;-32
2021/04/01 12:18:47;;;;;;;13.90;6.03;;;19.30;99.90;;;;;;5048138;28;20252;-34
2021/04/01 12:21:15;;;;;;;12.38;6.03;;;18.80;99.90;;;;;;5046216;28;20301;-32
2021/04/01 12:23:44;;;;;;;16.30;6.80;;;18.30;99.90;;;;;;5046247;28;20210;-33
2021/04/01 12:26:11;;;;;;;13.80;6.10;;;18.10;99.90;;;;;;5045126;28;20199;-31
2021/04/01 12:28:41;;;;;;;8.18;4.75;;;17.90;99.90;;;;;;5043541;28;20262;-31
2021/04/01 12:31:13;;;;;;;11.68;5.07;;;17.70;99.90;;;;;;5045563;28;20226;-31
2021/04/01 12:33:50;;;;;;;8.65;4.22;;;17.50;99.90;;;;;;5030254;28;20268;-32
2021/04/01 12:36:28;;;;;;;9.43;4.60;;;17.70;99.90;;;;;;5048762;28;20213;-33
2021/04/01 12:38:55;;;;;;;8.73;4.20;;;18.00;99.90;;;;;;5040177;28;20192;-32
2021/04/01 12:41:26;;;;;;;11.00;4.07;;;18.30;99.90;;;;;;5038264;28;20219;-32
2021/04/01 12:43:53;;;;;;;8.15;5.32;;;18.20;99.90;;;;;;5049847;28;20199;-31
2021/04/01 12:46:21;;;;;;;9.38;3.72;;;18.90;99.90;;;;;;5045513;28;20743;-32
2021/04/01 12:48:52;;;;;;;9.10;3.83;;;19.60;99.90;;;;;;5051995;28;20195;-32
2021/04/01 12:51:20;;;;;;;7.88;3.17;;;20.50;99.90;;;;;;5050085;28;20586;-31
2021/04/01 12:54:04;;;;;;;7.47;3.80;;;20.20;99.90;;;;;;5051089;28;20203;-31
2021/04/01 12:56:35;;;;;;;7.07;3.88;;;20.00;99.90;;;;;;5048767;28;20211;-31
2021/04/01 12:59:04;;;;;;;4.40;3.08;;;19.50;99.90;;;;;;5051992;28;20195;-32
2021/04/01 13:01:32;;;;;;;5.63;3.72;;;19.40;99.90;;;;;;5046874;28;20261;-34
2021/04/01 13:04:02;;;;;;;10.35;4.20;;;19.20;99.90;;;;;;5050609;28;20556;-34
2021/04/01 13:06:39;;;;;;;11.32;3.33;;;19.20;99.90;;;;;;5049954;28;20278;-33
2021/04/01 13:09:24;;;;;;;4.72;2.78;;;19.40;99.90;;;;;;5035863;28;20211;-34
2021/04/01 13:11:52;;;;;;;8.00;3.58;;;19.40;99.90;;;;;;5024112;28;20231;-33
2021/04/01 13:14:25;;;;;;;8.27;3.53;;;18.90;99.90;;;;;;5044839;28;20223;-32
2021/04/01 13:16:52;;;;;;;6.45;3.33;;;18.80;99.90;;;;;;5039309;28;20715;-32
2021/04/01 13:19:23;;;;;;;5.60;3.47;;;18.80;99.90;;;;;;5050291;28;20199;-32
2021/04/01 13:22:06;;;;;;;6.13;4.00;;;18.00;99.90;;;;;;5049047;28;20230;-33
2021/04/01 13:24:40;;;;;;;6.93;3.58;;;17.50;99.90;;;;;;5028824;28;20205;-34
2021/04/01 13:27:10;;;;;;;7.45;4.47;;;17.30;99.90;;;;;;5047522;28;20341;-35
2021/04/01 13:29:39;;;;;;;8.98;4.55;;;17.40;99.90;;;;;;5050869;28;20210;-36